Time;durP1;ratioP1;P1;durP2;ratioP2;P2;SDS_P1;SDS_P2;PMS_P1;PMS_P2;Temp;Humidity;BMP_temperature;BMP_pressure;BME280_temperature;BME280_humidity;BME280_pressure;Samples;Min_cycle;Max_cycle;Signal;HPM_P1;HPM_P2
2021/12/01 00:01:48;;;;;;;;;;;;;;;13.41;63.98;100350.38;5077880;28;1478;-63
2021/12/01 00:04:14;;;;;;;;;;;;;;;13.39;64.21;100346.13;5077739;28;1192;-72
2021/12/01 00:06:41;;;;;;;;;;;;;;;13.37;64.29;100346.25;5077514;28;1103;-63
2021/12/01 00:09:08;;;;;;;;;;;;;;;13.42;64.67;100357.38;5077504;28;1079;-65
2021/12/01 00:11:35;;;;;;;;;;;;;;;13.40;64.69;100353.16;5077629;28;1975;-63
2021/12/01 00:14:01;;;;;;;;;;;;;;;13.43;64.43;100353.78;5077771;28;1068;-71
2021/12/01 00:16:28;;;;;;;;;;;;;;;13.38;64.14;100342.63;5077617;28;1054;-63
2021/12/01 00:18:54;;;;;;;;;;;;;;;13.38;63.50;100360.38;5077324;28;1025;-63
2021/12/01 00:21:21;;;;;;;;;;;;;;;13.37;64.31;100343.59;5077563;28;1025;-71
2021/12/01 00:23:48;;;;;;;;;;;;;;;13.41;64.09;100350.38;5077219;28;1033;-63
2021/12/01 00:26:15;;;;;;;;;;;;;;;13.37;64.48;100332.97;5077449;28;986;-63
2021/12/01 00:28:42;;;;;;;;;;;;;;;13.38;64.41;100344.44;5077453;28;1072;-71
2021/12/01 00:31:08;;;;;;;;;;;;;;;13.38;64.08;100353.25;5077333;28;1906;-71
2021/12/01 00:33:35;;;;;;;;;;;;;;;13.38;64.03;100350.59;5077000;28;1188;-71
2021/12/01 00:36:01;;;;;;;;;;;;;;;13.37;64.60;100342.72;5077808;28;1068;-63
2021/12/01 00:38:29;;;;;;;;;;;;;;;13.38;64.07;100350.59;5077047;28;1067;-63
2021/12/01 00:40:55;;;;;;;;;;;;;;;13.36;64.65;100341.88;5077236;28;1020;-71
2021/12/01 00:43:25;;;;;;;;;;;;;;;13.39;64.22;100341.69;5077135;28;1060;-63
2021/12/01 00:45:55;;;;;;;;;;;;;;;13.39;64.35;100332.84;5077111;28;1159;-72
2021/12/01 00:48:23;;;;;;;;;;;;;;;13.34;64.31;100330.53;5076729;28;1087;-64
2021/12/01 00:50:49;;;;;;;;;;;;;;;13.37;64.38;100338.28;5076734;28;1980;-63
2021/12/01 00:53:16;;;;;;;;;;;;;;;13.34;64.10;100346.47;5076722;28;1052;-63
2021/12/01 00:55:43;;;;;;;;;;;;;;;13.34;64.12;100322.56;5076786;28;974;-72
2021/12/01 00:58:11;;;;;;;;;;;;;;;13.36;64.06;100312.66;5076567;28;1289;-71
2021/12/01 01:00:40;;;;;;;;;;;;;;;13.35;64.53;100318.09;5076920;28;1045;-64
2021/12/01 01:03:08;;;;;;;;;;;;;;;13.37;64.25;100316.16;5076212;28;1492;-71
2021/12/01 01:05:35;;;;;;;;;;;;;;;13.39;63.81;100330.19;5076790;28;972;-63
2021/12/01 01:08:01;;;;;;;;;;;;;;;13.36;63.52;100320.63;5076830;28;1068;-71
2021/12/01 01:10:45;;;;;;;;;;;;;;;13.35;64.33;100316.31;5076544;28;1902;-71
2021/12/01 01:18:43;;;;;;;;;;;;;;;13.36;64.21;100310.00;5069577;28;1027;-63
2021/12/01 01:21:10;;;;;;;;;;;;;;;13.36;64.53;100302.03;5076368;28;1072;-72
2021/12/01 01:23:37;;;;;;;;;;;;;;;13.33;64.28;100304.94;5076375;28;936;-70
2021/12/01 01:26:04;;;;;;;;;;;;;;;13.35;63.67;100299.50;5076036;28;922;-71
2021/12/01 01:28:30;;;;;;;;;;;;;;;13.34;63.71;100301.31;5076327;28;1065;-71
2021/12/01 01:30:59;;;;;;;;;;;;;;;13.31;64.07;100285.63;5075816;28;1993;-71
2021/12/01 01:33:25;;;;;;;;;;;;;;;13.33;64.13;100291.66;5076159;28;1023;-71
2021/12/01 01:35:52;;;;;;;;;;;;;;;13.33;63.91;100281.03;5076384;28;966;-63
2021/12/01 01:38:19;;;;;;;;;;;;;;;13.28;64.30;100269.84;5075774;28;1000;-71
2021/12/01 01:40:45;;;;;;;;;;;;;;;13.30;64.27;100274.13;5075721;28;1068;-64
2021/12/01 01:43:12;;;;;;;;;;;;;;;13.31;64.22;100269.69;5075680;28;1052;-63
2021/12/01 01:45:39;;;;;;;;;;;;;;;13.33;63.56;100257.13;5075673;28;1031;-63
2021/12/01 01:48:09;;;;;;;;;;;;;;;13.32;63.78;100274.84;5075896;28;1077;-63
2021/12/01 01:50:38;;;;;;;;;;;;;;;13.31;63.58;100253.75;5075700;28;1973;-63
2021/12/01 01:53:06;;;;;;;;;;;;;;;13.32;64.20;100260.75;5075467;28;1087;-63
2021/12/01 01:55:32;;;;;;;;;;;;;;;13.31;63.90;100264.38;5075472;28;1005;-64
2021/12/01 01:57:59;;;;;;;;;;;;;;;13.34;63.90;100253.50;5075683;28;1068;-63
2021/12/01 02:00:26;;;;;;;;;;;;;;;13.28;64.13;100254.75;5074591;28;1068;-71
2021/12/01 02:02:54;;;;;;;;;;;;;;;13.32;64.52;100250.13;5075228;28;1337;-63
2021/12/01 02:05:22;;;;;;;;;;;;;;;13.32;64.43;100250.97;5075285;28;1123;-63
2021/12/01 02:07:49;;;;;;;;;;;;;;;13.28;64.06;100238.84;5075490;28;1003;-63
2021/12/01 02:10:15;;;;;;;;;;;;;;;13.32;64.26;100245.66;5075391;28;1985;-63
2021/12/01 02:12:42;;;;;;;;;;;;;;;13.25;64.34;100241.72;5075752;28;978;-72
2021/12/01 02:15:09;;;;;;;;;;;;;;;13.29;64.33;100247.63;5075486;28;1022;-63
2021/12/01 02:17:36;;;;;;;;;;;;;;;13.29;63.83;100239.66;5075367;28;1064;-63
2021/12/01 02:20:04;;;;;;;;;;;;;;;13.30;63.51;100252.03;5075041;28;1024;-72
2021/12/01 02:22:34;;;;;;;;;;;;;;;13.31;63.59;100233.34;5075338;28;978;-63
2021/12/01 02:25:00;;;;;;;;;;;;;;;13.30;64.17;100238.75;5075284;28;1036;-63
2021/12/01 02:27:27;;;;;;;;;;;;;;;13.32;63.85;100231.53;5074976;28;1228;-71
2021/12/01 02:29:53;;;;;;;;;;;;;;;13.30;63.73;100218.34;5074906;28;1056;-72
2021/12/01 02:32:20;;;;;;;;;;;;;;;13.30;63.78;100207.72;5074723;28;1994;-71
2021/12/01 02:34:46;;;;;;;;;;;;;;;13.27;63.40;100212.38;5074836;28;1028;-63
2021/12/01 02:37:13;;;;;;;;;;;;;;;13.27;63.47;100207.94;5075157;28;938;-63
2021/12/01 02:39:41;;;;;;;;;;;;;;;13.28;63.67;100206.13;5074819;28;1056;-72
2021/12/01 02:42:08;;;;;;;;;;;;;;;13.26;63.67;100211.53;5075081;28;970;-64
2021/12/01 02:44:35;;;;;;;;;;;;;;;13.25;63.41;100198.38;5075016;28;972;-64
2021/12/01 02:47:03;;;;;;;;;;;;;;;13.25;63.47;100199.25;5074983;28;973;-64
2021/12/01 02:49:30;;;;;;;;;;;;;;;13.24;63.88;100196.69;5075038;28;1066;-71
2021/12/01 02:51:57;;;;;;;;;;;;;;;13.26;63.61;100208.03;5074845;28;1979;-64
2021/12/01 02:54:24;;;;;;;;;;;;;;;13.24;64.12;100209.97;5074610;28;1095;-71
2021/12/01 02:56:52;;;;;;;;;;;;;;;13.27;63.93;100221.22;5074490;28;1032;-63
2021/12/01 02:59:19;;;;;;;;;;;;;;;13.26;63.82;100208.03;5074645;28;1076;-71
2021/12/01 03:01:45;;;;;;;;;;;;;;;13.22;63.53;100203.91;5072159;28;1698;-71
2021/12/01 03:04:13;;;;;;;;;;;;;;;13.24;63.85;100196.69;5072468;28;1303;-64
2021/12/01 03:06:40;;;;;;;;;;;;;;;13.25;63.46;100206.34;5074461;28;1064;-65
2021/12/01 03:09:07;;;;;;;;;;;;;;;13.24;63.32;100212.63;5073966;28;986;-72
2021/12/01 03:11:35;;;;;;;;;;;;;;;13.26;63.46;100206.22;5074606;28;1969;-65
2021/12/01 03:14:08;;;;;;;;;;;;;;;13.26;63.59;100214.19;5078905;28;1046;-75
2021/12/01 03:16:35;;;;;;;;;;;;;;;13.23;63.64;100209.13;5078635;28;988;-65
2021/12/01 03:19:01;;;;;;;;;;;;;;;13.24;64.07;100212.63;5078790;28;1068;-64
2021/12/01 03:21:28;;;;;;;;;;;;;;;13.23;63.74;100208.25;5078570;28;1051;-72
2021/12/01 03:23:54;;;;;;;;;;;;;;;13.23;63.45;100219.75;5078489;28;1063;-71
2021/12/01 03:26:21;;;;;;;;;;;;;;;13.22;63.80;100218.03;5078298;28;1048;-72
2021/12/01 03:28:47;;;;;;;;;;;;;;;13.20;64.38;100203.19;5078373;28;1020;-73
2021/12/01 03:31:15;;;;;;;;;;;;;;;13.22;63.93;100233.97;5078551;28;1905;-72
2021/12/01 03:33:43;;;;;;;;;;;;;;;13.23;64.06;100240.13;5078409;28;960;-72
2021/12/01 03:36:09;;;;;;;;;;;;;;;13.21;64.34;100220.78;5078466;28;1011;-71
2021/12/01 03:38:36;;;;;;;;;;;;;;;13.24;63.50;100202.84;5078032;28;1028;-71
2021/12/01 03:41:02;;;;;;;;;;;;;;;13.19;64.09;100215.63;5078090;28;1015;-64
2021/12/01 03:43:29;;;;;;;;;;;;;;;13.21;63.56;100215.47;5078238;28;983;-65
2021/12/01 03:45:55;;;;;;;;;;;;;;;13.22;64.03;100223.34;5077875;28;1099;-71
2021/12/01 03:48:24;;;;;;;;;;;;;;;13.16;63.96;100207.88;5078189;28;1057;-65
2021/12/01 03:50:51;;;;;;;;;;;;;;;13.19;63.49;100218.28;5078161;28;1906;-65
2021/12/01 03:53:18;;;;;;;;;;;;;;;13.23;63.96;100234.81;5078399;28;836;-64
2021/12/01 03:55:44;;;;;;;;;;;;;;;13.22;63.86;100233.13;5078093;28;952;-72
2021/12/01 03:58:11;;;;;;;;;;;;;;;13.19;63.62;100223.59;5078045;28;1019;-73
2021/12/01 04:00:37;;;;;;;;;;;;;;;13.21;63.54;100226.09;5077944;28;980;-65
2021/12/01 04:03:04;;;;;;;;;;;;;;;13.18;63.72;100229.00;5076485;28;1408;-72
2021/12/01 04:05:32;;;;;;;;;;;;;;;13.19;63.50;100223.59;5077843;28;1007;-65
2021/12/01 04:08:00;;;;;;;;;;;;;;;13.19;63.70;100238.66;5077897;28;1056;-65
2021/12/01 04:10:28;;;;;;;;;;;;;;;13.16;63.93;100217.66;5077775;28;1087;-65
2021/12/01 04:12:54;;;;;;;;;;;;;;;13.17;63.81;100235.25;5077453;28;1910;-65
2021/12/01 04:15:21;;;;;;;;;;;;;;;13.20;63.38;100240.34;5077490;28;1103;-65
2021/12/01 04:17:49;;;;;;;;;;;;;;;13.19;63.45;100249.25;5077587;28;1039;-71
2021/12/01 04:20:16;;;;;;;;;;;;;;;13.18;63.47;100221.03;5077303;28;1052;-71
2021/12/01 04:22:45;;;;;;;;;;;;;;;13.20;63.61;100225.25;5077578;28;997;-65
2021/12/01 04:25:11;;;;;;;;;;;;;;;13.19;63.72;100230.69;5076888;28;1004;-65
2021/12/01 04:27:39;;;;;;;;;;;;;;;13.18;63.67;100240.47;5077793;28;1006;-65
2021/12/01 04:30:07;;;;;;;;;;;;;;;13.20;63.51;100224.44;5077201;28;1028;-72
2021/12/01 04:32:33;;;;;;;;;;;;;;;13.19;64.25;100226.25;5077328;28;1902;-72
2021/12/01 04:35:01;;;;;;;;;;;;;;;13.20;63.85;100209.34;5077501;28;971;-72
2021/12/01 04:37:28;;;;;;;;;;;;;;;13.20;63.59;100195.22;5077357;28;1016;-71
2021/12/01 04:39:56;;;;;;;;;;;;;;;13.16;63.57;100201.72;5077099;28;1012;-66
2021/12/01 04:42:22;;;;;;;;;;;;;;;13.19;63.55;100205.00;5077449;28;1020;-65
2021/12/01 04:44:49;;;;;;;;;;;;;;;13.16;63.57;100197.25;5077295;28;959;-72
2021/12/01 04:47:18;;;;;;;;;;;;;;;13.20;63.84;100213.81;5077196;28;918;-64
2021/12/01 04:49:45;;;;;;;;;;;;;;;13.20;64.15;100206.69;5076733;28;980;-65
2021/12/01 04:52:12;;;;;;;;;;;;;;;13.18;64.03;100208.59;5075892;28;1974;-65
2021/12/01 04:54:38;;;;;;;;;;;;;;;13.17;63.80;100214.00;5076385;28;1079;-78
2021/12/01 04:57:07;;;;;;;;;;;;;;;13.17;63.62;100211.34;5076231;28;1011;-65
2021/12/01 04:59:35;;;;;;;;;;;;;;;13.18;63.81;100221.88;5076597;28;1016;-64
2021/12/01 05:02:02;;;;;;;;;;;;;;;13.14;64.02;100220.41;5076736;28;1400;-72
2021/12/01 05:04:28;;;;;;;;;;;;;;;13.14;63.70;100215.09;5075398;28;1317;-72
2021/12/01 05:06:55;;;;;;;;;;;;;;;13.13;64.02;100221.38;5076619;28;1011;-65
2021/12/01 05:09:21;;;;;;;;;;;;;;;13.17;63.81;100220.19;5076327;28;1090;-72
2021/12/01 05:11:48;;;;;;;;;;;;;;;13.13;64.02;100227.53;5076330;28;1978;-71
2021/12/01 05:14:16;;;;;;;;;;;;;;;13.16;64.12;100217.66;5076779;28;989;-76
2021/12/01 05:16:43;;;;;;;;;;;;;;;13.14;63.42;100220.41;5076587;28;1029;-64
2021/12/01 05:19:10;;;;;;;;;;;;;;;13.15;63.82;100243.34;5076515;28;994;-72
2021/12/01 05:21:36;;;;;;;;;;;;;;;13.16;63.74;100254.81;5076153;28;1083;-65
2021/12/01 05:24:03;;;;;;;;;;;;;;;13.16;64.31;100239.72;5076434;28;948;-64
2021/12/01 05:26:30;;;;;;;;;;;;;;;13.14;63.60;100262.88;5076266;28;1021;-71
2021/12/01 05:28:57;;;;;;;;;;;;;;;13.14;63.86;100269.03;5076246;28;1040;-73
2021/12/01 05:31:25;;;;;;;;;;;;;;;13.13;64.23;100266.50;5075871;28;1973;-64
2021/12/01 05:33:51;;;;;;;;;;;;;;;13.12;63.95;100270.94;5076204;28;989;-71
2021/12/01 05:36:18;;;;;;;;;;;;;;;13.12;63.79;100273.59;5075117;28;1081;-72
2021/12/01 05:38:45;;;;;;;;;;;;;;;13.12;63.78;100270.94;5076064;28;1031;-65
2021/12/01 05:41:11;;;;;;;;;;;;;;;13.11;64.19;100279.88;5076061;28;1080;-73
2021/12/01 05:43:38;;;;;;;;;;;;;;;13.13;63.38;100293.06;5076101;28;974;-65
2021/12/01 05:46:04;;;;;;;;;;;;;;;13.09;63.71;100281.81;5075633;28;1221;-72
2021/12/01 05:48:32;;;;;;;;;;;;;;;13.12;63.93;100275.41;5075641;28;1071;-65
2021/12/01 05:50:59;;;;;;;;;;;;;;;13.11;63.78;100285.19;5075559;28;1272;-72
2021/12/01 05:53:25;;;;;;;;;;;;;;;13.11;63.87;100281.66;5075421;28;1947;-71
2021/12/01 05:55:52;;;;;;;;;;;;;;;13.12;63.57;100280.72;5075520;28;1019;-66
2021/12/01 05:58:18;;;;;;;;;;;;;;;13.12;64.10;100281.56;5075696;28;945;-64
2021/12/01 06:00:45;;;;;;;;;;;;;;;13.11;62.75;100265.75;5075514;28;1056;-64
2021/12/01 06:03:11;;;;;;;;;;;;;;;13.12;63.93;100264.78;5073998;28;1404;-70
2021/12/01 06:05:39;;;;;;;;;;;;;;;13.12;63.79;100254.19;5075272;28;991;-71
2021/12/01 06:08:06;;;;;;;;;;;;;;;13.13;64.26;100269.16;5075812;28;1020;-64
2021/12/01 06:10:33;;;;;;;;;;;;;;;13.13;63.97;100285.94;5075409;28;934;-71
2021/12/01 06:12:59;;;;;;;;;;;;;;;13.17;63.94;100277.72;5075362;28;1906;-64
2021/12/01 06:15:26;;;;;;;;;;;;;;;13.13;63.90;100272.66;5075747;28;946;-64
2021/12/01 06:17:53;;;;;;;;;;;;;;;13.16;63.90;100282.19;5075378;28;1000;-65
2021/12/01 06:20:19;;;;;;;;;;;;;;;13.16;63.95;100281.34;5075103;28;1013;-66
2021/12/01 06:22:47;;;;;;;;;;;;;;;13.17;63.68;100264.47;5075336;28;958;-72
2021/12/01 06:25:13;;;;;;;;;;;;;;;13.12;63.09;100262.97;5074966;28;1040;-65
2021/12/01 06:27:42;;;;;;;;;;;;;;;13.16;63.68;100249.50;5074960;28;1112;-71
2021/12/01 06:30:09;;;;;;;;;;;;;;;13.16;63.71;100247.69;5075357;28;1195;-64
2021/12/01 06:32:36;;;;;;;;;;;;;;;13.16;63.88;100268.09;5075089;28;1902;-65
2021/12/01 06:35:02;;;;;;;;;;;;;;;13.13;63.77;100270.00;5074893;28;1122;-72
2021/12/01 06:37:28;;;;;;;;;;;;;;;13.14;63.49;100284.13;5074823;28;1020;-65
2021/12/01 06:39:56;;;;;;;;;;;;;;;13.12;63.91;100276.25;5075147;28;1057;-74
2021/12/01 06:42:23;;;;;;;;;;;;;;;13.09;63.79;100270.31;5075022;28;934;-72
2021/12/01 06:44:49;;;;;;;;;;;;;;;13.10;63.56;100288.78;5074949;28;988;-65
2021/12/01 06:47:17;;;;;;;;;;;;;;;13.13;63.46;100283.28;5074422;28;1035;-72
2021/12/01 06:49:45;;;;;;;;;;;;;;;13.14;63.93;100279.66;5075034;28;983;-65
2021/12/01 06:52:12;;;;;;;;;;;;;;;13.16;63.62;100295.47;5074577;28;1906;-71
2021/12/01 06:54:39;;;;;;;;;;;;;;;13.19;63.78;100312.97;5074893;28;978;-72
2021/12/01 06:57:07;;;;;;;;;;;;;;;13.16;63.51;100318.53;5075076;28;1065;-72
2021/12/01 06:59:34;;;;;;;;;;;;;;;13.12;63.73;100323.19;5074976;28;963;-71
2021/12/01 07:02:00;;;;;;;;;;;;;;;13.17;63.45;100312.25;5074756;28;1474;-72
2021/12/01 07:04:26;;;;;;;;;;;;;;;13.16;63.34;100313.22;5073501;28;1069;-72
2021/12/01 07:06:53;;;;;;;;;;;;;;;13.13;63.68;100331.06;5074589;28;1091;-64
2021/12/01 07:09:21;;;;;;;;;;;;;;;13.17;63.54;100325.53;5074318;28;1091;-71
2021/12/01 07:11:48;;;;;;;;;;;;;;;13.17;63.66;100325.53;5074547;28;1906;-71
2021/12/01 07:14:16;;;;;;;;;;;;;;;13.20;64.00;100346.56;5074767;28;979;-71
2021/12/01 07:16:43;;;;;;;;;;;;;;;13.16;63.57;100332.63;5074276;28;994;-65
2021/12/01 07:19:09;;;;;;;;;;;;;;;13.13;63.61;100335.53;5074547;28;1071;-73
2021/12/01 07:21:36;;;;;;;;;;;;;;;13.10;63.75;100338.38;5074821;28;977;-71
2021/12/01 07:24:03;;;;;;;;;;;;;;;13.12;63.64;100344.44;5074379;28;1032;-64
2021/12/01 07:26:30;;;;;;;;;;;;;;;13.16;63.25;100345.91;5074606;28;1032;-71
2021/12/01 07:28:56;;;;;;;;;;;;;;;13.12;64.00;100345.28;5074839;28;1076;-71
2021/12/01 07:31:24;;;;;;;;;;;;;;;13.11;63.95;100346.25;5074687;28;1044;-64
2021/12/01 07:33:50;;;;;;;;;;;;;;;13.15;63.64;100352.19;5074474;28;1909;-72
2021/12/01 07:36:17;;;;;;;;;;;;;;;13.14;63.82;100353.16;5074225;28;1099;-71
2021/12/01 07:38:44;;;;;;;;;;;;;;;13.13;64.26;100352.31;5074590;28;1006;-65
2021/12/01 07:41:11;;;;;;;;;;;;;;;13.16;64.00;100351.22;5074138;28;1049;-71
2021/12/01 07:43:37;;;;;;;;;;;;;;;13.11;63.87;100348.91;5074522;28;1039;-65
2021/12/01 07:46:04;;;;;;;;;;;;;;;13.12;63.87;100361.22;5074369;28;974;-71
2021/12/01 07:48:32;;;;;;;;;;;;;;;13.13;63.71;100352.31;5073964;28;1071;-71
2021/12/01 07:50:58;;;;;;;;;;;;;;;13.12;63.78;100345.28;5074118;28;1051;-71
2021/12/01 07:53:25;;;;;;;;;;;;;;;13.16;63.72;100345.06;5074287;28;1902;-71
2021/12/01 07:55:51;;;;;;;;;;;;;;;13.14;63.96;100355.78;5074087;28;1115;-65
2021/12/01 07:58:18;;;;;;;;;;;;;;;13.17;64.41;100362.69;5074211;28;1083;-65
2021/12/01 08:00:44;;;;;;;;;;;;;;;13.13;63.78;100367.38;5077819;28;984;-65
2021/12/01 08:03:18;;;;;;;;;;;;;;;13.12;63.92;100360.38;5075143;28;1384;-74
2021/12/01 08:05:52;;;;;;;;;;;;;;;13.10;64.18;100368.44;5077638;28;1114;-65
2021/12/01 08:08:19;;;;;;;;;;;;;;;13.10;64.10;100368.44;5077889;28;1064;-72
2021/12/01 08:10:46;;;;;;;;;;;;;;;13.12;63.76;100369.16;5077844;28;1023;-64
2021/12/01 08:13:12;;;;;;;;;;;;;;;13.14;64.37;100361.09;5077668;28;1975;-64
2021/12/01 08:15:39;;;;;;;;;;;;;;;13.13;63.83;100368.22;5077758;28;1049;-65
2021/12/01 08:18:06;;;;;;;;;;;;;;;13.13;63.93;100384.16;5077623;28;1080;-66
2021/12/01 08:20:33;;;;;;;;;;;;;;;13.16;63.92;100387.56;5077323;28;988;-71
2021/12/01 08:23:01;;;;;;;;;;;;;;;13.16;63.92;100379.59;5077675;28;1036;-64
2021/12/01 08:25:27;;;;;;;;;;;;;;;13.13;63.81;100368.22;5077551;28;1076;-71
2021/12/01 08:27:54;;;;;;;;;;;;;;;13.13;64.13;100386.81;5077530;28;1061;-72
2021/12/01 08:30:20;;;;;;;;;;;;;;;13.16;63.99;100376.94;5077171;28;1122;-76
2021/12/01 08:32:47;;;;;;;;;;;;;;;13.12;63.67;100378.94;5077282;28;1953;-66
2021/12/01 08:35:14;;;;;;;;;;;;;;;13.11;64.02;100372.78;5077217;28;1043;-76
2021/12/01 08:37:40;;;;;;;;;;;;;;;13.10;64.33;100383.50;5077623;28;1019;-65
2021/12/01 08:40:09;;;;;;;;;;;;;;;13.11;64.36;100372.78;5077570;28;1483;-64
2021/12/01 08:42:42;;;;;;;;;;;;;;;13.12;63.92;100382.44;5077381;28;974;-71
2021/12/01 08:45:09;;;;;;;;;;;;;;;13.09;63.81;100393.28;5077256;28;955;-71
2021/12/01 08:47:35;;;;;;;;;;;;;;;13.08;64.75;100396.03;5076914;28;1047;-65
2021/12/01 08:50:10;;;;;;;;;;;;;;;13.09;64.10;100381.81;5077156;28;1136;-71
2021/12/01 08:52:36;;;;;;;;;;;;;;;13.12;63.72;100374.47;5076748;28;1975;-71
2021/12/01 08:55:03;;;;;;;;;;;;;;;13.14;63.77;100379.69;5077106;28;1088;-71
2021/12/01 08:57:31;;;;;;;;;;;;;;;13.12;63.94;100366.50;5076627;28;1075;-71
2021/12/01 08:59:57;;;;;;;;;;;;;;;13.16;63.12;100384.91;5076817;28;991;-72
2021/12/01 09:02:24;;;;;;;;;;;;;;;13.11;64.03;100379.88;5076892;28;1467;-72
2021/12/01 09:04:51;;;;;;;;;;;;;;;13.08;63.81;100375.66;5075679;28;1376;-72
2021/12/01 09:07:17;;;;;;;;;;;;;;;13.14;64.00;100392.97;5077664;28;977;-72
2021/12/01 09:09:44;;;;;;;;;;;;;;;13.18;63.80;100396.25;5076859;28;1195;-65
2021/12/01 09:12:11;;;;;;;;;;;;;;;13.11;63.97;100399.34;5076498;28;1091;-64
2021/12/01 09:14:39;;;;;;;;;;;;;;;13.16;64.01;100392.88;5076359;28;1898;-71
2021/12/01 09:17:06;;;;;;;;;;;;;;;13.22;63.63;100387.13;5076255;28;1048;-77
2021/12/01 09:19:32;;;;;;;;;;;;;;;13.23;63.49;100367.56;5076592;28;934;-64
2021/12/01 09:21:59;;;;;;;;;;;;;;;13.24;63.85;100387.88;5076364;28;999;-71
2021/12/01 09:24:25;;;;;;;;;;;;;;;13.19;63.90;100382.00;5076242;28;1051;-65
2021/12/01 09:26:52;;;;;;;;;;;;;;;13.19;64.30;100376.69;5076131;28;1040;-72
2021/12/01 09:29:19;;;;;;;;;;;;;;;13.20;63.80;100370.44;5076424;28;945;-72
2021/12/01 09:31:47;;;;;;;;;;;;;;;13.26;63.69;100377.97;5076030;28;1020;-65
2021/12/01 09:34:14;;;;;;;;;;;;;;;13.26;63.83;100365.56;5076092;28;1983;-72
2021/12/01 09:36:40;;;;;;;;;;;;;;;13.26;63.65;100346.13;5076456;28;970;-64
2021/12/01 09:39:07;;;;;;;;;;;;;;;13.24;64.54;100342.72;5076223;28;1019;-65
2021/12/01 09:41:34;;;;;;;;;;;;;;;13.24;63.44;100348.03;5070788;28;1530;-71
2021/12/01 09:44:01;;;;;;;;;;;;;;;13.23;63.71;100338.34;5068804;28;976;-72
2021/12/01 09:46:30;;;;;;;;;;;;;;;13.26;63.83;100340.81;5059718;28;1100;-65
2021/12/01 09:48:58;;;;;;;;;;;;;;;13.27;63.96;100331.88;5055639;28;1016;-72
2021/12/01 09:51:24;;;;;;;;;;;;;;;13.30;63.91;100329.88;5055705;28;1020;-65
2021/12/01 09:53:53;;;;;;;;;;;;;;;13.29;63.56;100335.25;5065034;28;1906;-73
2021/12/01 09:56:20;;;;;;;;;;;;;;;13.32;63.73;100321.81;5075837;28;1065;-73
2021/12/01 09:58:46;;;;;;;;;;;;;;;13.35;63.47;100318.09;5075395;28;1041;-64
2021/12/01 10:01:14;;;;;;;;;;;;;;;13.36;63.46;100336.56;5075507;28;1043;-72
2021/12/01 10:03:41;;;;;;;;;;;;;;;13.34;63.71;100333.19;5068239;28;1704;-64
2021/12/01 10:06:11;;;;;;;;;;;;;;;13.36;63.48;100328.59;5066953;28;1436;-64
2021/12/01 10:08:39;;;;;;;;;;;;;;;13.37;63.24;100327.66;5075242;28;1044;-65
2021/12/01 10:11:07;;;;;;;;;;;;;;;13.39;62.85;100323.09;5075158;28;1086;-65
2021/12/01 10:13:34;;;;;;;;;;;;;;;13.40;63.38;100321.28;5073443;28;1898;-72
2021/12/01 10:16:02;;;;;;;;;;;;;;;13.39;64.08;100333.72;5073108;28;1357;-71
2021/12/01 10:18:29;;;;;;;;;;;;;;;13.42;63.70;100346.75;5074381;28;1071;-65
2021/12/01 10:21:02;;;;;;;;;;;;;;;13.41;63.40;100338.88;5074946;28;940;-65
2021/12/01 10:23:30;;;;;;;;;;;;;;;13.41;63.68;100344.19;5075299;28;980;-73
2021/12/01 10:25:57;;;;;;;;;;;;;;;13.41;63.87;100345.06;5075400;28;960;-71
2021/12/01 10:28:33;;;;;;;;;;;;;;;13.46;64.17;100344.75;5075063;28;980;-71
2021/12/01 10:31:00;;;;;;;;;;;;;;;13.46;63.38;100348.22;5074965;28;1035;-71
2021/12/01 10:33:28;;;;;;;;;;;;;;;13.44;64.07;100328.91;5075166;28;1898;-65
2021/12/01 10:35:55;;;;;;;;;;;;;;;13.47;63.40;100339.31;5075429;28;1051;-64
2021/12/01 10:38:25;;;;;;;;;;;;;;;13.44;64.10;100338.69;5075185;28;1038;-71
2021/12/01 10:41:01;;;;;;;;;;;;;;;13.46;64.02;100350.03;5074913;28;1011;-72
2021/12/01 10:43:35;;;;;;;;;;;;;;;13.43;64.32;100329.88;5075166;28;1107;-72
2021/12/01 10:46:06;;;;;;;;;;;;;;;13.48;64.03;100366.72;5075105;28;1694;-64
2021/12/01 10:48:32;;;;;;;;;;;;;;;13.49;63.53;100341.88;5075102;28;1026;-65
2021/12/01 10:50:59;;;;;;;;;;;;;;;13.50;63.26;100323.16;5074727;28;1116;-64
2021/12/01 10:53:26;;;;;;;;;;;;;;;13.50;64.23;100338.25;5074822;28;1976;-77
2021/12/01 10:55:54;;;;;;;;;;;;;;;13.55;64.09;100356.50;5074688;28;1020;-72
2021/12/01 10:58:22;;;;;;;;;;;;;;;13.47;64.31;100334.00;5074633;28;1048;-72
2021/12/01 11:00:49;;;;;;;;;;;;;;;13.49;64.20;100336.56;5074982;28;1039;-65
2021/12/01 11:03:17;;;;;;;;;;;;;;;13.51;64.17;100354.06;5074892;28;1449;-64
2021/12/01 11:05:44;;;;;;;;;;;;;;;13.50;63.22;100338.25;5073395;28;1223;-72
2021/12/01 11:08:12;;;;;;;;;;;;;;;13.53;64.10;100344.19;5074880;28;1092;-65
2021/12/01 11:10:38;;;;;;;;;;;;;;;13.56;64.35;100337.81;5074510;28;1051;-77
2021/12/01 11:13:05;;;;;;;;;;;;;;;13.53;63.76;100335.38;5074848;28;1979;-65
2021/12/01 11:15:34;;;;;;;;;;;;;;;13.53;64.26;100332.72;5074564;28;1040;-64
2021/12/01 11:18:01;;;;;;;;;;;;;;;13.51;63.83;100324.03;5074497;28;1119;-71
2021/12/01 11:20:51;;;;;;;;;;;;;;;13.50;64.92;100330.28;5074542;28;976;-65
2021/12/01 11:23:20;;;;;;;;;;;;;;;13.57;64.49;100335.97;5059206;28;1012;-71
2021/12/01 11:25:48;;;;;;;;;;;;;;;13.52;64.10;100323.88;5074397;28;1196;-65
2021/12/01 11:28:16;;;;;;;;;;;;;;;13.49;64.42;100326.78;5074918;28;1087;-65
2021/12/01 11:30:45;;;;;;;;;;;;;;;13.55;64.59;100340.56;5074533;28;1034;-64
2021/12/01 11:33:13;;;;;;;;;;;;;;;13.50;64.34;100323.16;5076190;28;1918;-64
2021/12/01 11:35:41;;;;;;;;;;;;;;;13.53;64.00;100317.63;5078345;28;1027;-65
2021/12/01 11:38:08;;;;;;;;;;;;;;;13.56;63.66;100329.00;5078571;28;1036;-71
2021/12/01 11:40:34;;;;;;;;;;;;;;;13.55;64.46;100303.38;5078221;28;1039;-64
2021/12/01 11:43:02;;;;;;;;;;;;;;;13.51;64.08;100319.53;5078058;28;1057;-72
2021/12/01 11:45:28;;;;;;;;;;;;;;;13.59;63.92;100331.41;5078400;28;1007;-77
2021/12/01 11:47:57;;;;;;;;;;;;;;;13.58;64.41;100324.41;5078086;28;1040;-64
2021/12/01 11:50:27;;;;;;;;;;;;;;;13.51;64.18;100308.91;5077879;28;1107;-64
2021/12/01 11:53:02;;;;;;;;;;;;;;;13.55;64.53;100317.53;5077921;28;1095;-76
2021/12/01 11:55:48;;;;;;;;;;;;;;;13.57;64.48;100326.22;5078030;28;1971;-64
2021/12/01 11:58:29;;;;;;;;;;;;;;;13.55;63.90;100324.63;5077953;28;1087;-72
2021/12/01 12:00:55;;;;;;;;;;;;;;;13.62;64.05;100341.81;5077685;28;1429;-72
2021/12/01 12:03:27;;;;;;;;;;;;;;;13.57;64.19;100312.06;5077997;28;1481;-71
2021/12/01 12:06:08;;;;;;;;;;;;;;;13.60;63.46;100328.66;5076349;28;1246;-73
2021/12/01 12:08:53;;;;;;;;;;;;;;;13.59;64.73;100326.09;5077450;28;1234;-64
2021/12/01 12:11:35;;;;;;;;;;;;;;;13.63;63.38;100320.47;5077699;28;1045;-72
2021/12/01 12:14:04;;;;;;;;;;;;;;;13.61;64.62;100330.34;5077725;28;1973;-72
2021/12/01 12:16:31;;;;;;;;;;;;;;;13.67;64.17;100321.09;5077520;28;1049;-64
2021/12/01 12:18:59;;;;;;;;;;;;;;;13.67;63.93;100326.41;5077708;28;1027;-77
2021/12/01 12:21:34;;;;;;;;;;;;;;;13.67;63.92;100329.06;5077547;28;1035;-65
2021/12/01 12:24:06;;;;;;;;;;;;;;;13.71;64.44;100342.00;5077364;28;1011;-71
2021/12/01 12:26:34;;;;;;;;;;;;;;;13.71;64.04;100327.88;5077735;28;1036;-71
2021/12/01 12:29:01;;;;;;;;;;;;;;;13.69;64.38;100337.78;5077324;28;1051;-64
2021/12/01 12:31:29;;;;;;;;;;;;;;;13.65;64.51;100338.97;5077498;28;1063;-72
2021/12/01 12:33:57;;;;;;;;;;;;;;;13.62;64.66;100341.81;5077395;28;1976;-64
2021/12/01 12:36:37;;;;;;;;;;;;;;;13.64;64.45;100350.53;5077173;28;991;-71
2021/12/01 12:39:04;;;;;;;;;;;;;;;13.62;64.62;100342.66;5077446;28;964;-64
2021/12/01 12:41:30;;;;;;;;;;;;;;;13.63;64.81;100332.91;5077257;28;1028;-73
2021/12/01 12:44:17;;;;;;;;;;;;;;;13.63;64.67;100341.72;5076738;28;1024;-72
2021/12/01 12:47:00;;;;;;;;;;;;;;;13.63;64.83;100347.03;5076717;28;1079;-65
2021/12/01 12:49:36;;;;;;;;;;;;;;;13.64;64.78;100342.56;5077269;28;971;-65
2021/12/01 12:52:17;;;;;;;;;;;;;;;13.58;64.92;100335.88;5077191;28;964;-72
2021/12/01 12:54:45;;;;;;;;;;;;;;;13.63;64.04;100343.53;5076444;28;2005;-65
2021/12/01 12:57:13;;;;;;;;;;;;;;;13.59;64.35;100334.94;5076682;28;1048;-64